sensor_id;sensor_type;location;lat;lon;timestamp;P1;durP1;ratioP1;P2;durP2;ratioP2
31686;SDS011;18285;51.330;4.946;2023-03-21T00:00:55;4.82;;;2.80;;
31686;SDS011;18285;51.330;4.946;2023-03-21T00:25:12;4.13;;;2.00;;
31686;SDS011;18285;51.330;4.946;2023-03-21T00:49:23;4.30;;;2.28;;
31686;SDS011;18285;51.330;4.946;2023-03-21T01:13:34;2.75;;;1.98;;
31686;SDS011;18285;51.330;4.946;2023-03-21T01:37:44;3.17;;;1.88;;
31686;SDS011;18285;51.330;4.946;2023-03-21T02:01:58;2.47;;;1.70;;
31686;SDS011;18285;51.330;4.946;2023-03-21T02:26:22;2.47;;;1.70;;
31686;SDS011;18285;51.330;4.946;2023-03-21T02:50:41;2.60;;;1.73;;
31686;SDS011;18285;51.330;4.946;2023-03-21T03:39:18;2.40;;;1.40;;
31686;SDS011;18285;51.330;4.946;2023-03-21T04:03:29;2.05;;;1.50;;
31686;SDS011;18285;51.330;4.946;2023-03-21T04:27:41;3.25;;;1.70;;
31686;SDS011;18285;51.330;4.946;2023-03-21T04:51:52;2.92;;;1.60;;
31686;SDS011;18285;51.330;4.946;2023-03-21T05:16:02;1.73;;;1.30;;
31686;SDS011;18285;51.330;4.946;2023-03-21T05:40:13;2.50;;;1.55;;
31686;SDS011;18285;51.330;4.946;2023-03-21T06:04:24;3.05;;;1.70;;
31686;SDS011;18285;51.330;4.946;2023-03-21T06:28:36;15.73;;;4.57;;
31686;SDS011;18285;51.330;4.946;2023-03-21T06:52:47;11.60;;;3.20;;
31686;SDS011;18285;51.330;4.946;2023-03-21T07:16:58;9.43;;;3.17;;
31686;SDS011;18285;51.330;4.946;2023-03-21T07:41:09;15.27;;;5.43;;
31686;SDS011;18285;51.330;4.946;2023-03-21T08:05:21;7.35;;;3.00;;
31686;SDS011;18285;51.330;4.946;2023-03-21T08:29:33;6.40;;;2.38;;
31686;SDS011;18285;51.330;4.946;2023-03-21T08:53:49;5.30;;;2.13;;
31686;SDS011;18285;51.330;4.946;2023-03-21T09:18:00;4.18;;;1.95;;
31686;SDS011;18285;51.330;4.946;2023-03-21T09:42:37;3.97;;;1.90;;
31686;SDS011;18285;51.330;4.946;2023-03-21T10:06:57;4.13;;;1.95;;
31686;SDS011;18285;51.330;4.946;2023-03-21T10:31:13;2.58;;;1.40;;
31686;SDS011;18285;51.330;4.946;2023-03-21T10:55:28;3.13;;;1.60;;
31686;SDS011;18285;51.330;4.946;2023-03-21T11:44:03;2.17;;;1.30;;
31686;SDS011;18285;51.330;4.946;2023-03-21T12:32:56;3.80;;;2.10;;
31686;SDS011;18285;51.330;4.946;2023-03-21T12:57:30;3.20;;;1.75;;
31686;SDS011;18285;51.330;4.946;2023-03-21T14:11:15;3.13;;;1.50;;
31686;SDS011;18285;51.330;4.946;2023-03-21T14:35:28;3.13;;;1.30;;
31686;SDS011;18285;51.330;4.946;2023-03-21T14:59:40;3.60;;;1.67;;
31686;SDS011;18285;51.330;4.946;2023-03-21T15:23:52;5.32;;;1.60;;
31686;SDS011;18285;51.330;4.946;2023-03-21T15:48:11;2.20;;;1.20;;
31686;SDS011;18285;51.330;4.946;2023-03-21T16:12:23;3.63;;;1.80;;
31686;SDS011;18285;51.330;4.946;2023-03-21T16:36:35;4.75;;;2.08;;
31686;SDS011;18285;51.330;4.946;2023-03-21T17:00:47;4.55;;;1.98;;
31686;SDS011;18285;51.330;4.946;2023-03-21T17:24:57;3.53;;;1.50;;
31686;SDS011;18285;51.330;4.946;2023-03-21T17:49:09;6.03;;;1.77;;
31686;SDS011;18285;51.330;4.946;2023-03-21T18:13:22;4.38;;;1.65;;
31686;SDS011;18285;51.330;4.946;2023-03-21T18:37:32;3.47;;;1.77;;
31686;SDS011;18285;51.330;4.946;2023-03-21T19:01:43;2.90;;;1.63;;
31686;SDS011;18285;51.330;4.946;2023-03-21T19:25:54;5.57;;;3.30;;
31686;SDS011;18285;51.330;4.946;2023-03-21T19:50:06;5.90;;;3.67;;
31686;SDS011;18285;51.330;4.946;2023-03-21T20:14:18;5.47;;;3.75;;
31686;SDS011;18285;51.330;4.946;2023-03-21T20:38:30;7.33;;;4.03;;
31686;SDS011;18285;51.330;4.946;2023-03-21T21:02:44;4.40;;;3.33;;
31686;SDS011;18285;51.330;4.946;2023-03-21T21:26:57;4.25;;;2.70;;
31686;SDS011;18285;51.330;4.946;2023-03-21T21:51:08;7.95;;;2.60;;
31686;SDS011;18285;51.330;4.946;2023-03-21T22:15:19;3.88;;;2.40;;
31686;SDS011;18285;51.330;4.946;2023-03-21T22:39:31;3.63;;;1.90;;
31686;SDS011;18285;51.330;4.946;2023-03-21T23:03:42;3.88;;;1.95;;
31686;SDS011;18285;51.330;4.946;2023-03-21T23:27:53;3.45;;;1.60;;
31686;SDS011;18285;51.330;4.946;2023-03-21T23:52:04;4.22;;;1.90;;
